sensor_id;sensor_type;location;lat;lon;timestamp;pressure;altitude;pressure_sealevel;temperature;humidity
61018;BME280;48171;51.550;5.434;2023-04-29T00:00:34;101478.41;;;9.65;100.00
61018;BME280;48171;51.550;5.434;2023-04-29T00:03:00;101484.59;;;9.66;100.00
61018;BME280;48171;51.550;5.434;2023-04-29T00:05:26;101481.94;;;9.64;100.00
61018;BME280;48171;51.550;5.434;2023-04-29T00:07:51;101484.59;;;9.66;100.00
61018;BME280;48171;51.550;5.434;2023-04-29T00:10:17;101484.59;;;9.66;100.00
61018;BME280;48171;51.550;5.434;2023-04-29T00:12:42;101489.00;;;9.64;100.00
61018;BME280;48171;51.550;5.434;2023-04-29T00:15:08;101495.13;;;9.64;100.00
61018;BME280;48171;51.550;5.434;2023-04-29T00:17:34;101485.44;;;9.60;100.00
61018;BME280;48171;51.550;5.434;2023-04-29T00:19:59;101488.94;;;9.59;100.00
61018;BME280;48171;51.550;5.434;2023-04-29T00:22:24;101486.28;;;9.56;100.00
61018;BME280;48171;51.550;5.434;2023-04-29T00:24:50;101488.03;;;9.54;100.00
61018;BME280;48171;51.550;5.434;2023-04-29T00:27:15;101488.91;;;9.54;100.00
61018;BME280;48171;51.550;5.434;2023-04-29T00:29:42;101497.63;;;9.46;100.00
61018;BME280;48171;51.550;5.434;2023-04-29T00:32:07;101494.09;;;9.44;100.00
61018;BME280;48171;51.550;5.434;2023-04-29T00:34:32;101505.53;;;9.44;100.00
61018;BME280;48171;51.550;5.434;2023-04-29T00:36:58;101506.41;;;9.41;100.00
61018;BME280;48171;51.550;5.434;2023-04-29T00:39:23;101507.28;;;9.42;100.00
61018;BME280;48171;51.550;5.434;2023-04-29T00:41:48;101507.28;;;9.42;100.00
61018;BME280;48171;51.550;5.434;2023-04-29T00:44:14;101509.00;;;9.40;100.00
61018;BME280;48171;51.550;5.434;2023-04-29T00:46:39;101510.72;;;9.33;100.00
61018;BME280;48171;51.550;5.434;2023-04-29T00:49:06;101515.09;;;9.31;100.00
61018;BME280;48171;51.550;5.434;2023-04-29T00:51:32;101508.94;;;9.29;100.00
61018;BME280;48171;51.550;5.434;2023-04-29T00:53:58;101520.38;;;9.31;100.00
61018;BME280;48171;51.550;5.434;2023-04-29T00:56:23;101515.09;;;9.30;100.00
61018;BME280;48171;51.550;5.434;2023-04-29T00:58:49;101511.50;;;9.25;100.00
61018;BME280;48171;51.550;5.434;2023-04-29T01:01:17;101521.22;;;9.27;100.00
61018;BME280;48171;51.550;5.434;2023-04-29T01:03:43;101523.84;;;9.29;100.00
61018;BME280;48171;51.550;5.434;2023-04-29T01:12:19;101528.19;;;9.22;100.00
61018;BME280;48171;51.550;5.434;2023-04-29T01:14:53;101526.34;;;9.15;100.00
61018;BME280;48171;51.550;5.434;2023-04-29T01:17:24;101525.47;;;9.11;100.00
61018;BME280;48171;51.550;5.434;2023-04-29T01:19:53;101530.66;;;9.07;100.00
61018;BME280;48171;51.550;5.434;2023-04-29T01:22:20;101532.41;;;9.06;100.00
61018;BME280;48171;51.550;5.434;2023-04-29T01:24:46;101536.78;;;9.02;100.00
61018;BME280;48171;51.550;5.434;2023-04-29T01:27:36;101543.00;;;9.09;100.00
61018;BME280;48171;51.550;5.434;2023-04-29T01:30:16;101540.34;;;9.08;100.00
61018;BME280;48171;51.550;5.434;2023-04-29T01:41:44;101545.56;;;9.05;100.00
61018;BME280;48171;51.550;5.434;2023-04-29T01:44:20;101542.94;;;9.03;100.00
61018;BME280;48171;51.550;5.434;2023-04-29T01:46:51;101549.06;;;9.02;100.00
61018;BME280;48171;51.550;5.434;2023-04-29T01:49:25;101545.56;;;9.05;100.00
61018;BME280;48171;51.550;5.434;2023-04-29T01:51:51;101550.88;;;9.06;100.00
61018;BME280;48171;51.550;5.434;2023-04-29T01:54:16;101554.34;;;9.02;100.00
61018;BME280;48171;51.550;5.434;2023-04-29T01:56:42;101554.34;;;9.02;100.00
61018;BME280;48171;51.550;5.434;2023-04-29T01:59:07;101549.97;;;9.04;100.00
61018;BME280;48171;51.550;5.434;2023-04-29T02:01:33;101549.94;;;9.02;100.00
61018;BME280;48171;51.550;5.434;2023-04-29T02:03:58;101547.31;;;9.01;100.00
61018;BME280;48171;51.550;5.434;2023-04-29T02:06:24;101551.66;;;8.97;100.00
61018;BME280;48171;51.550;5.434;2023-04-29T02:08:50;101554.34;;;8.99;100.00
61018;BME280;48171;51.550;5.434;2023-04-29T02:11:15;101555.22;;;8.99;100.00
61018;BME280;48171;51.550;5.434;2023-04-29T02:13:41;101564.00;;;9.01;100.00
61018;BME280;48171;51.550;5.434;2023-04-29T02:16:07;101571.03;;;9.02;100.00
61018;BME280;48171;51.550;5.434;2023-04-29T02:18:33;101569.28;;;9.01;100.00
61018;BME280;48171;51.550;5.434;2023-04-29T02:20:59;101572.78;;;8.99;100.00
61018;BME280;48171;51.550;5.434;2023-04-29T02:23:25;101579.81;;;9.00;100.00
61018;BME280;48171;51.550;5.434;2023-04-29T02:25:51;101578.03;;;9.00;100.00
61018;BME280;48171;51.550;5.434;2023-04-29T02:28:16;101581.59;;;9.01;100.00
61018;BME280;48171;51.550;5.434;2023-04-29T02:30:41;101579.81;;;9.00;100.00
61018;BME280;48171;51.550;5.434;2023-04-29T02:33:07;101583.28;;;8.96;100.00
61018;BME280;48171;51.550;5.434;2023-04-29T02:35:32;101591.16;;;8.93;100.00
61018;BME280;48171;51.550;5.434;2023-04-29T02:37:57;101592.03;;;8.93;100.00
61018;BME280;48171;51.550;5.434;2023-04-29T02:40:23;101596.44;;;8.94;100.00
61018;BME280;48171;51.550;5.434;2023-04-29T02:42:49;101599.06;;;8.94;100.00
61018;BME280;48171;51.550;5.434;2023-04-29T02:45:15;101601.69;;;8.93;100.00
61018;BME280;48171;51.550;5.434;2023-04-29T02:47:40;101609.53;;;8.87;100.00
61018;BME280;48171;51.550;5.434;2023-04-29T02:50:06;101615.69;;;8.87;100.00
61018;BME280;48171;51.550;5.434;2023-04-29T02:52:31;101615.66;;;8.86;100.00
61018;BME280;48171;51.550;5.434;2023-04-29T02:54:56;101615.66;;;8.86;100.00
61018;BME280;48171;51.550;5.434;2023-04-29T02:57:22;101624.41;;;8.85;100.00
61018;BME280;48171;51.550;5.434;2023-04-29T02:59:47;101619.16;;;8.83;100.00
61018;BME280;48171;51.550;5.434;2023-04-29T03:02:12;101622.63;;;8.82;100.00
61018;BME280;48171;51.550;5.434;2023-04-29T03:04:38;101621.78;;;8.83;100.00
61018;BME280;48171;51.550;5.434;2023-04-29T03:07:04;101626.13;;;8.82;100.00
61018;BME280;48171;51.550;5.434;2023-04-29T03:09:29;101626.16;;;8.81;100.00
61018;BME280;48171;51.550;5.434;2023-04-29T03:11:56;101620.88;;;8.82;100.00
61018;BME280;48171;51.550;5.434;2023-04-29T03:14:21;101638.50;;;8.85;100.00
61018;BME280;48171;51.550;5.434;2023-04-29T03:16:46;101634.94;;;8.81;100.00
61018;BME280;48171;51.550;5.434;2023-04-29T03:19:11;101636.69;;;8.81;100.00
61018;BME280;48171;51.550;5.434;2023-04-29T03:21:37;101629.63;;;8.80;100.00
61018;BME280;48171;51.550;5.434;2023-04-29T03:24:02;101634.91;;;8.80;100.00
61018;BME280;48171;51.550;5.434;2023-04-29T03:26:27;101640.19;;;8.81;100.00
61018;BME280;48171;51.550;5.434;2023-04-29T03:28:53;101640.16;;;8.80;100.00
61018;BME280;48171;51.550;5.434;2023-04-29T03:31:18;101645.41;;;8.78;100.00
61018;BME280;48171;51.550;5.434;2023-04-29T03:33:45;101649.81;;;8.78;100.00
61018;BME280;48171;51.550;5.434;2023-04-29T03:36:10;101643.56;;;8.71;100.00
61018;BME280;48171;51.550;5.434;2023-04-29T03:38:36;101647.13;;;8.73;100.00
61018;BME280;48171;51.550;5.434;2023-04-29T03:41:01;101640.97;;;8.74;100.00
61018;BME280;48171;51.550;5.434;2023-04-29T03:43:26;101652.41;;;8.76;100.00
61018;BME280;48171;51.550;5.434;2023-04-29T03:45:52;101646.28;;;8.77;100.00
61018;BME280;48171;51.550;5.434;2023-04-29T03:48:17;101647.16;;;8.78;100.00
61018;BME280;48171;51.550;5.434;2023-04-29T03:50:44;101652.47;;;8.79;100.00
61018;BME280;48171;51.550;5.434;2023-04-29T03:53:10;101651.59;;;8.80;100.00
61018;BME280;48171;51.550;5.434;2023-04-29T03:55:36;101659.56;;;8.84;100.00
61018;BME280;48171;51.550;5.434;2023-04-29T03:58:01;101662.25;;;8.87;100.00
61018;BME280;48171;51.550;5.434;2023-04-29T04:00:27;101653.44;;;8.86;100.00
61018;BME280;48171;51.550;5.434;2023-04-29T04:02:55;101657.03;;;8.91;100.00
61018;BME280;48171;51.550;5.434;2023-04-29T04:05:20;101658.81;;;8.94;100.00
61018;BME280;48171;51.550;5.434;2023-04-29T04:07:49;101660.59;;;8.95;100.00
61018;BME280;48171;51.550;5.434;2023-04-29T04:10:14;101665.88;;;8.98;100.00
61018;BME280;48171;51.550;5.434;2023-04-29T04:12:40;101660.59;;;8.98;100.00
61018;BME280;48171;51.550;5.434;2023-04-29T04:15:05;101669.41;;;9.00;100.00
61018;BME280;48171;51.550;5.434;2023-04-29T04:17:31;101666.75;;;8.98;100.00
61018;BME280;48171;51.550;5.434;2023-04-29T04:19:56;101673.78;;;8.98;100.00
61018;BME280;48171;51.550;5.434;2023-04-29T04:22:22;101672.03;;;8.98;100.00
61018;BME280;48171;51.550;5.434;2023-04-29T04:24:47;101678.19;;;8.97;100.00
61018;BME280;48171;51.550;5.434;2023-04-29T04:27:12;101686.97;;;8.98;100.00
61018;BME280;48171;51.550;5.434;2023-04-29T04:29:38;101679.94;;;8.97;100.00
61018;BME280;48171;51.550;5.434;2023-04-29T04:32:04;101688.75;;;8.99;100.00
61018;BME280;48171;51.550;5.434;2023-04-29T04:34:29;101684.34;;;8.99;100.00
61018;BME280;48171;51.550;5.434;2023-04-29T04:36:54;101690.44;;;8.95;100.00
61018;BME280;48171;51.550;5.434;2023-04-29T04:39:20;101685.16;;;8.94;100.00
61018;BME280;48171;51.550;5.434;2023-04-29T04:41:45;101690.44;;;8.94;100.00
61018;BME280;48171;51.550;5.434;2023-04-29T04:44:10;101691.31;;;8.94;100.00
61018;BME280;48171;51.550;5.434;2023-04-29T04:46:37;101688.66;;;8.91;100.00
61018;BME280;48171;51.550;5.434;2023-04-29T04:49:02;101701.94;;;8.99;100.00
61018;BME280;48171;51.550;5.434;2023-04-29T04:51:27;101706.31;;;9.00;100.00
61018;BME280;48171;51.550;5.434;2023-04-29T04:53:53;101723.00;;;9.00;100.00
61018;BME280;48171;51.550;5.434;2023-04-29T04:56:18;101727.38;;;8.97;100.00
61018;BME280;48171;51.550;5.434;2023-04-29T04:58:44;101733.50;;;8.96;100.00
61018;BME280;48171;51.550;5.434;2023-04-29T05:01:09;101737.00;;;8.93;100.00
61018;BME280;48171;51.550;5.434;2023-04-29T05:03:34;101739.66;;;8.96;100.00
61018;BME280;48171;51.550;5.434;2023-04-29T05:06:00;101739.66;;;8.96;100.00
61018;BME280;48171;51.550;5.434;2023-04-29T05:08:26;101738.78;;;8.96;100.00
61018;BME280;48171;51.550;5.434;2023-04-29T05:10:51;101740.53;;;8.95;100.00
61018;BME280;48171;51.550;5.434;2023-04-29T05:13:17;101743.16;;;8.95;100.00
61018;BME280;48171;51.550;5.434;2023-04-29T05:15:43;101747.53;;;8.93;100.00
61018;BME280;48171;51.550;5.434;2023-04-29T05:18:09;101754.56;;;8.93;100.00
61018;BME280;48171;51.550;5.434;2023-04-29T05:20:34;101750.13;;;8.92;100.00
61018;BME280;48171;51.550;5.434;2023-04-29T05:22:59;101752.75;;;8.90;100.00
61018;BME280;48171;51.550;5.434;2023-04-29T05:25:25;101752.75;;;8.89;100.00
61018;BME280;48171;51.550;5.434;2023-04-29T05:27:51;101758.91;;;8.89;100.00
61018;BME280;48171;51.550;5.434;2023-04-29T05:30:17;101759.81;;;8.91;100.00
61018;BME280;48171;51.550;5.434;2023-04-29T05:32:43;101766.00;;;8.95;100.00
61018;BME280;48171;51.550;5.434;2023-04-29T05:35:10;101773.91;;;8.95;100.00
61018;BME280;48171;51.550;5.434;2023-04-29T05:37:35;101771.28;;;8.95;100.00
61018;BME280;48171;51.550;5.434;2023-04-29T05:40:00;101763.31;;;8.92;100.00
61018;BME280;48171;51.550;5.434;2023-04-29T05:42:26;101768.69;;;8.98;100.00
61018;BME280;48171;51.550;5.434;2023-04-29T05:44:51;101770.47;;;8.99;100.00
61018;BME280;48171;51.550;5.434;2023-04-29T05:47:17;101775.75;;;8.99;100.00
61018;BME280;48171;51.550;5.434;2023-04-29T05:49:42;101779.22;;;8.98;100.00
61018;BME280;48171;51.550;5.434;2023-04-29T05:52:07;101786.25;;;8.97;100.00
61018;BME280;48171;51.550;5.434;2023-04-29T05:54:33;101785.34;;;8.95;100.00
61018;BME280;48171;51.550;5.434;2023-04-29T05:56:59;101790.63;;;8.97;100.00
61018;BME280;48171;51.550;5.434;2023-04-29T05:59:31;101789.72;;;8.96;100.00
61018;BME280;48171;51.550;5.434;2023-04-29T06:01:57;101798.56;;;8.97;100.00
61018;BME280;48171;51.550;5.434;2023-04-29T06:04:23;101796.81;;;8.99;100.00
61018;BME280;48171;51.550;5.434;2023-04-29T06:06:52;101810.91;;;9.02;100.00
61018;BME280;48171;51.550;5.434;2023-04-29T06:09:19;101809.13;;;9.00;100.00
61018;BME280;48171;51.550;5.434;2023-04-29T06:11:45;101809.16;;;9.01;100.00
61018;BME280;48171;51.550;5.434;2023-04-29T06:14:10;101810.06;;;9.04;100.00
61018;BME280;48171;51.550;5.434;2023-04-29T06:16:36;101818.81;;;9.02;100.00
61018;BME280;48171;51.550;5.434;2023-04-29T06:19:01;101819.72;;;9.03;100.00
61018;BME280;48171;51.550;5.434;2023-04-29T06:21:27;101818.81;;;9.02;100.00
61018;BME280;48171;51.550;5.434;2023-04-29T06:23:52;101815.34;;;9.04;100.00
61018;BME280;48171;51.550;5.434;2023-04-29T06:26:18;101823.25;;;9.04;100.00
61018;BME280;48171;51.550;5.434;2023-04-29T06:28:45;101825.00;;;9.05;100.00
61018;BME280;48171;51.550;5.434;2023-04-29T06:31:10;101818.88;;;9.06;100.00
61018;BME280;48171;51.550;5.434;2023-04-29T06:33:36;101823.31;;;9.08;100.00
61018;BME280;48171;51.550;5.434;2023-04-29T06:36:01;101837.44;;;9.13;100.00
61018;BME280;48171;51.550;5.434;2023-04-29T06:38:27;101838.38;;;9.15;100.00
61018;BME280;48171;51.550;5.434;2023-04-29T06:40:52;101842.75;;;9.16;100.00
61018;BME280;48171;51.550;5.434;2023-04-29T06:43:17;101848.06;;;9.18;100.00
61018;BME280;48171;51.550;5.434;2023-04-29T06:45:45;101857.75;;;9.19;100.00
61018;BME280;48171;51.550;5.434;2023-04-29T06:48:11;101853.38;;;9.19;100.00
61018;BME280;48171;51.550;5.434;2023-04-29T06:50:36;101858.66;;;9.21;100.00
61018;BME280;48171;51.550;5.434;2023-04-29T06:53:01;101865.69;;;9.22;100.00
61018;BME280;48171;51.550;5.434;2023-04-29T06:55:26;101866.63;;;9.26;100.00
61018;BME280;48171;51.550;5.434;2023-04-29T06:57:52;101869.31;;;9.27;100.00
61018;BME280;48171;51.550;5.434;2023-04-29T07:00:17;101875.47;;;9.31;100.00
61018;BME280;48171;51.550;5.434;2023-04-29T07:02:45;101882.59;;;9.33;100.00
61018;BME280;48171;51.550;5.434;2023-04-29T07:05:10;101883.53;;;9.38;100.00
61018;BME280;48171;51.550;5.434;2023-04-29T07:07:35;101887.94;;;9.41;100.00
61018;BME280;48171;51.550;5.434;2023-04-29T07:10:01;101894.13;;;9.43;100.00
61018;BME280;48171;51.550;5.434;2023-04-29T07:12:26;101891.50;;;9.43;100.00
61018;BME280;48171;51.550;5.434;2023-04-29T07:14:51;101896.75;;;9.43;100.00
61018;BME280;48171;51.550;5.434;2023-04-29T07:17:17;101898.59;;;9.46;100.00
61018;BME280;48171;51.550;5.434;2023-04-29T07:19:42;101905.59;;;9.44;100.00
61018;BME280;48171;51.550;5.434;2023-04-29T07:22:08;101894.13;;;9.43;100.00
61018;BME280;48171;51.550;5.434;2023-04-29T07:24:33;101901.19;;;9.44;100.00
61018;BME280;48171;51.550;5.434;2023-04-29T07:26:58;101902.09;;;9.46;100.00
61018;BME280;48171;51.550;5.434;2023-04-29T07:29:24;101906.53;;;9.49;100.00
61018;BME280;48171;51.550;5.434;2023-04-29T07:31:49;101917.09;;;9.50;100.00
61018;BME280;48171;51.550;5.434;2023-04-29T07:34:14;101915.41;;;9.54;100.00
61018;BME280;48171;51.550;5.434;2023-04-29T07:36:40;101916.28;;;9.54;100.00
61018;BME280;48171;51.550;5.434;2023-04-29T07:39:05;101917.19;;;9.56;100.00
61018;BME280;48171;51.550;5.434;2023-04-29T07:41:30;101919.00;;;9.60;100.00
61018;BME280;48171;51.550;5.434;2023-04-29T07:43:56;101915.53;;;9.61;100.00
61018;BME280;48171;51.550;5.434;2023-04-29T07:46:21;101922.63;;;9.67;100.00
61018;BME280;48171;51.550;5.434;2023-04-29T07:48:46;101927.06;;;9.71;100.00
61018;BME280;48171;51.550;5.434;2023-04-29T07:51:12;101925.38;;;9.75;100.00
61018;BME280;48171;51.550;5.434;2023-04-29T07:53:38;101922.78;;;9.78;100.00
61018;BME280;48171;51.550;5.434;2023-04-29T07:56:05;101926.31;;;9.81;100.00
61018;BME280;48171;51.550;5.434;2023-04-29T07:58:31;101931.66;;;9.85;100.00
61018;BME280;48171;51.550;5.434;2023-04-29T08:00:56;101935.25;;;9.88;100.00
61018;BME280;48171;51.550;5.434;2023-04-29T08:03:21;101938.81;;;9.92;100.00
61018;BME280;48171;51.550;5.434;2023-04-29T08:05:47;101939.72;;;9.95;100.00
61018;BME280;48171;51.550;5.434;2023-04-29T08:08:12;101945.06;;;9.98;100.00
61018;BME280;48171;51.550;5.434;2023-04-29T08:10:37;101943.31;;;10.00;100.00
61018;BME280;48171;51.550;5.434;2023-04-29T08:13:08;101943.38;;;10.05;100.00
61018;BME280;48171;51.550;5.434;2023-04-29T08:15:33;101946.88;;;10.06;100.00
61018;BME280;48171;51.550;5.434;2023-04-29T08:17:58;101946.06;;;10.10;100.00
61018;BME280;48171;51.550;5.434;2023-04-29T08:20:23;101948.69;;;10.10;100.00
61018;BME280;48171;51.550;5.434;2023-04-29T08:22:49;101945.25;;;10.15;100.00
61018;BME280;48171;51.550;5.434;2023-04-29T08:25:14;101949.72;;;10.21;100.00
61018;BME280;48171;51.550;5.434;2023-04-29T08:27:40;101954.22;;;10.27;100.00
61018;BME280;48171;51.550;5.434;2023-04-29T08:30:08;101945.50;;;10.34;100.00
61018;BME280;48171;51.550;5.434;2023-04-29T08:32:33;101949.97;;;10.38;100.00
61018;BME280;48171;51.550;5.434;2023-04-29T08:34:59;101955.31;;;10.43;100.00
61018;BME280;48171;51.550;5.434;2023-04-29T08:37:24;101956.22;;;10.46;100.00
61018;BME280;48171;51.550;5.434;2023-04-29T08:39:49;101957.19;;;10.53;100.00
61018;BME280;48171;51.550;5.434;2023-04-29T08:42:16;101955.47;;;10.58;100.00
61018;BME280;48171;51.550;5.434;2023-04-29T08:44:45;101964.38;;;10.65;100.00
61018;BME280;48171;51.550;5.434;2023-04-29T08:47:11;101960.88;;;10.70;100.00
61018;BME280;48171;51.550;5.434;2023-04-29T08:49:39;101970.63;;;10.76;100.00
61018;BME280;48171;51.550;5.434;2023-04-29T08:52:05;101963.63;;;10.79;100.00
61018;BME280;48171;51.550;5.434;2023-04-29T08:54:31;101969.84;;;10.83;100.00
61018;BME280;48171;51.550;5.434;2023-04-29T08:56:57;101978.59;;;10.80;100.00
61018;BME280;48171;51.550;5.434;2023-04-29T08:59:24;101968.91;;;10.78;100.00
61018;BME280;48171;51.550;5.434;2023-04-29T09:01:49;101975.06;;;10.78;100.00
61018;BME280;48171;51.550;5.434;2023-04-29T09:05:12;101973.34;;;10.82;100.00
61018;BME280;48171;51.550;5.434;2023-04-29T09:07:13;101977.81;;;10.85;100.00
61018;BME280;48171;51.550;5.434;2023-04-29T09:09:40;101976.06;;;10.88;100.00
61018;BME280;48171;51.550;5.434;2023-04-29T09:12:05;101978.72;;;10.90;100.00
61018;BME280;48171;51.550;5.434;2023-04-29T09:14:32;101980.47;;;10.89;99.31
61018;BME280;48171;51.550;5.434;2023-04-29T09:17:00;101984.09;;;10.99;100.00
61018;BME280;48171;51.550;5.434;2023-04-29T09:19:30;101985.97;;;11.11;100.00
61018;BME280;48171;51.550;5.434;2023-04-29T09:21:56;101981.72;;;11.28;99.23
61018;BME280;48171;51.550;5.434;2023-04-29T09:24:25;101980.94;;;11.43;100.00
61018;BME280;48171;51.550;5.434;2023-04-29T09:26:52;101977.50;;;11.52;98.53
61018;BME280;48171;51.550;5.434;2023-04-29T09:29:17;101978.41;;;11.58;99.09
61018;BME280;48171;51.550;5.434;2023-04-29T09:31:43;101981.97;;;11.62;98.37
61018;BME280;48171;51.550;5.434;2023-04-29T09:34:10;101978.41;;;11.57;96.81
61018;BME280;48171;51.550;5.434;2023-04-29T09:36:48;101982.78;;;11.55;95.83
61018;BME280;48171;51.550;5.434;2023-04-29T09:39:19;101985.50;;;11.59;99.71
61018;BME280;48171;51.550;5.434;2023-04-29T09:44:21;101984.66;;;11.71;96.83
61018;BME280;48171;51.550;5.434;2023-04-29T09:46:56;101992.69;;;11.80;99.03
61018;BME280;48171;51.550;5.434;2023-04-29T09:49:26;101988.25;;;11.78;93.69
61018;BME280;48171;51.550;5.434;2023-04-29T09:51:53;101988.25;;;11.78;93.50
61018;BME280;48171;51.550;5.434;2023-04-29T09:54:20;101992.72;;;11.85;94.55
61018;BME280;48171;51.550;5.434;2023-04-29T09:56:48;101996.31;;;11.89;93.17
61018;BME280;48171;51.550;5.434;2023-04-29T09:59:14;101998.91;;;11.87;89.55
61018;BME280;48171;51.550;5.434;2023-04-29T10:01:39;102002.50;;;11.91;91.37
61018;BME280;48171;51.550;5.434;2023-04-29T10:04:06;101997.22;;;11.95;90.92
61018;BME280;48171;51.550;5.434;2023-04-29T10:06:32;102002.56;;;12.03;93.27
61018;BME280;48171;51.550;5.434;2023-04-29T10:08:58;102005.25;;;12.11;90.70
61018;BME280;48171;51.550;5.434;2023-04-29T10:11:24;102013.22;;;12.17;91.06
61018;BME280;48171;51.550;5.434;2023-04-29T10:13:51;102007.97;;;12.20;90.13
61018;BME280;48171;51.550;5.434;2023-04-29T10:16:28;102023.88;;;12.20;91.64
61018;BME280;48171;51.550;5.434;2023-04-29T10:18:55;102020.31;;;12.19;88.57
61018;BME280;48171;51.550;5.434;2023-04-29T10:21:27;102023.84;;;12.18;87.13
61018;BME280;48171;51.550;5.434;2023-04-29T10:23:57;102021.19;;;12.17;85.58
61018;BME280;48171;51.550;5.434;2023-04-29T10:26:27;102022.09;;;12.20;85.77
61018;BME280;48171;51.550;5.434;2023-04-29T10:28:54;102019.47;;;12.30;90.84
61018;BME280;48171;51.550;5.434;2023-04-29T10:31:20;102026.53;;;12.26;85.85
61018;BME280;48171;51.550;5.434;2023-04-29T10:33:47;102012.41;;;12.24;86.09
61018;BME280;48171;51.550;5.434;2023-04-29T10:36:14;102020.34;;;12.24;84.27
61018;BME280;48171;51.550;5.434;2023-04-29T10:38:42;102024.78;;;12.27;84.00
61018;BME280;48171;51.550;5.434;2023-04-29T10:41:18;102022.13;;;12.31;84.79
61018;BME280;48171;51.550;5.434;2023-04-29T10:43:44;102032.75;;;12.37;86.18
61018;BME280;48171;51.550;5.434;2023-04-29T10:46:17;102023.06;;;12.39;88.04
61018;BME280;48171;51.550;5.434;2023-04-29T10:48:43;102027.50;;;12.44;83.31
61018;BME280;48171;51.550;5.434;2023-04-29T10:51:09;102028.38;;;12.44;82.92
61018;BME280;48171;51.550;5.434;2023-04-29T10:53:34;102021.34;;;12.49;85.80
61018;BME280;48171;51.550;5.434;2023-04-29T10:56:06;102023.16;;;12.56;85.78
61018;BME280;48171;51.550;5.434;2023-04-29T10:58:45;102031.97;;;12.61;84.31
61018;BME280;48171;51.550;5.434;2023-04-29T11:01:15;102028.44;;;12.64;82.82
61018;BME280;48171;51.550;5.434;2023-04-29T11:03:47;102029.38;;;12.69;87.54
61018;BME280;48171;51.550;5.434;2023-04-29T11:06:13;102029.34;;;12.68;84.99
61018;BME280;48171;51.550;5.434;2023-04-29T11:08:39;102034.66;;;12.68;86.87
61018;BME280;48171;51.550;5.434;2023-04-29T11:11:05;102032.00;;;12.66;86.10
61018;BME280;48171;51.550;5.434;2023-04-29T11:13:37;102034.63;;;12.61;86.08
61018;BME280;48171;51.550;5.434;2023-04-29T11:16:07;102040.81;;;12.57;86.30
61018;BME280;48171;51.550;5.434;2023-04-29T11:18:33;102042.56;;;12.54;83.49
61018;BME280;48171;51.550;5.434;2023-04-29T11:23:33;102033.72;;;12.53;85.44
61018;BME280;48171;51.550;5.434;2023-04-29T11:26:00;102032.88;;;12.59;86.32
61018;BME280;48171;51.550;5.434;2023-04-29T11:28:29;102031.13;;;12.66;86.50
61018;BME280;48171;51.550;5.434;2023-04-29T11:30:56;102032.91;;;12.74;84.54
61018;BME280;48171;51.550;5.434;2023-04-29T11:33:22;102030.31;;;12.85;88.82
61018;BME280;48171;51.550;5.434;2023-04-29T11:35:48;102029.44;;;12.95;82.34
61018;BME280;48171;51.550;5.434;2023-04-29T11:38:13;102028.56;;;13.01;82.57
61018;BME280;48171;51.550;5.434;2023-04-29T11:40:47;102034.78;;;13.09;80.63
61018;BME280;48171;51.550;5.434;2023-04-29T11:43:19;102034.75;;;13.11;79.42
61018;BME280;48171;51.550;5.434;2023-04-29T11:45:45;102039.19;;;13.10;80.68
61018;BME280;48171;51.550;5.434;2023-04-29T11:48:24;102034.78;;;13.08;77.04
61018;BME280;48171;51.550;5.434;2023-04-29T11:50:52;102040.06;;;13.06;78.26
61018;BME280;48171;51.550;5.434;2023-04-29T11:53:19;102043.63;;;13.10;77.97
61018;BME280;48171;51.550;5.434;2023-04-29T11:55:45;102028.59;;;13.12;77.89
61018;BME280;48171;51.550;5.434;2023-04-29T11:58:11;102039.19;;;13.18;80.44
61018;BME280;48171;51.550;5.434;2023-04-29T12:00:38;102036.56;;;13.24;82.23
61018;BME280;48171;51.550;5.434;2023-04-29T12:03:17;102037.47;;;13.31;80.01
61018;BME280;48171;51.550;5.434;2023-04-29T12:05:55;102047.22;;;13.38;82.14
61018;BME280;48171;51.550;5.434;2023-04-29T12:08:22;102048.13;;;13.40;78.14
61018;BME280;48171;51.550;5.434;2023-04-29T12:10:48;102041.94;;;13.47;81.25
61018;BME280;48171;51.550;5.434;2023-04-29T12:13:15;102038.38;;;13.54;79.48
61018;BME280;48171;51.550;5.434;2023-04-29T12:15:40;102033.06;;;13.60;78.63
61018;BME280;48171;51.550;5.434;2023-04-29T12:18:06;102038.38;;;13.67;78.62
61018;BME280;48171;51.550;5.434;2023-04-29T12:20:32;102041.91;;;13.70;77.87
61018;BME280;48171;51.550;5.434;2023-04-29T12:23:10;102033.06;;;13.74;76.94
61018;BME280;48171;51.550;5.434;2023-04-29T12:25:36;102032.19;;;13.74;77.19
61018;BME280;48171;51.550;5.434;2023-04-29T12:28:01;102034.81;;;13.71;76.92
61018;BME280;48171;51.550;5.434;2023-04-29T12:30:28;102036.59;;;13.70;74.88
61018;BME280;48171;51.550;5.434;2023-04-29T12:32:53;102038.38;;;13.70;76.24
61018;BME280;48171;51.550;5.434;2023-04-29T12:35:19;102035.69;;;13.71;76.74
61018;BME280;48171;51.550;5.434;2023-04-29T12:37:49;102041.91;;;13.73;75.52
61018;BME280;48171;51.550;5.434;2023-04-29T12:40:15;102033.06;;;13.76;75.89
61018;BME280;48171;51.550;5.434;2023-04-29T12:42:41;102036.59;;;13.75;74.27
61018;BME280;48171;51.550;5.434;2023-04-29T12:45:06;102040.13;;;13.75;74.29
61018;BME280;48171;51.550;5.434;2023-04-29T12:47:32;102041.91;;;13.76;73.05
61018;BME280;48171;51.550;5.434;2023-04-29T12:50:01;102038.38;;;13.76;75.90
61018;BME280;48171;51.550;5.434;2023-04-29T12:52:26;102035.69;;;13.80;75.02
61018;BME280;48171;51.550;5.434;2023-04-29T12:54:51;102044.56;;;13.86;74.72
61018;BME280;48171;51.550;5.434;2023-04-29T12:57:16;102044.53;;;13.89;73.27
61018;BME280;48171;51.550;5.434;2023-04-29T12:59:42;102048.97;;;13.93;72.23
61018;BME280;48171;51.550;5.434;2023-04-29T13:02:07;102041.00;;;14.00;74.12
61018;BME280;48171;51.550;5.434;2023-04-29T13:04:32;102040.97;;;14.05;70.32
61018;BME280;48171;51.550;5.434;2023-04-29T13:06:58;102048.06;;;14.03;72.72